Time;durP1;ratioP1;P1;durP2;ratioP2;P2;SDS_P1;SDS_P2;PMS_P1;PMS_P2;Temp;Humidity;BMP_temperature;BMP_pressure;BME280_temperature;BME280_humidity;BME280_pressure;Samples;Min_cycle;Max_cycle;Signal;HPM_P1;HPM_P2
2020/12/13 00:02:19;;;;;;;22.23;13.10;;;4.10;99.90;;;;;;5090152;28;20481;-52
2020/12/13 00:04:45;;;;;;;17.00;12.07;;;4.50;99.90;;;;;;5075371;28;20542;-52
2020/12/13 00:07:12;;;;;;;17.70;11.90;;;4.30;99.90;;;;;;5090522;28;20519;-52
2020/12/13 00:09:39;;;;;;;15.70;11.13;;;4.30;99.90;;;;;;5091315;28;20515;-52
2020/12/13 00:12:06;;;;;;;19.80;12.33;;;4.20;99.90;;;;;;5091172;28;20502;-52
2020/12/13 00:14:33;;;;;;;17.30;11.57;;;4.20;99.90;;;;;;5091131;28;20535;-52
2020/12/13 00:17:00;;;;;;;17.13;10.93;;;4.10;99.90;;;;;;5089915;28;20891;-52
2020/12/13 00:19:27;;;;;;;20.10;12.20;;;4.20;99.90;;;;;;5090785;28;20465;-52
2020/12/13 00:21:55;;;;;;;18.20;12.53;;;4.00;99.90;;;;;;5091737;28;20481;-52
2020/12/13 00:24:23;;;;;;;21.97;13.00;;;4.00;99.90;;;;;;5090380;28;20542;-52
2020/12/13 00:26:50;;;;;;;19.60;12.17;;;3.90;99.90;;;;;;5089844;28;20462;-52
2020/12/13 00:29:17;;;;;;;18.40;11.80;;;3.90;99.90;;;;;;5091378;28;20951;-52
2020/12/13 00:31:44;;;;;;;15.40;10.70;;;4.00;99.90;;;;;;5089322;28;20867;-52
2020/12/13 00:34:11;;;;;;;20.53;11.60;;;3.90;99.90;;;;;;5091188;28;20470;-52
2020/12/13 00:36:37;;;;;;;19.47;11.40;;;3.90;99.90;;;;;;5090546;28;20478;-52
2020/12/13 00:39:05;;;;;;;17.93;10.17;;;3.90;99.90;;;;;;5090466;28;20466;-52
2020/12/13 00:41:32;;;;;;;17.20;10.97;;;3.90;99.90;;;;;;5091104;28;20445;-51
2020/12/13 00:44:00;;;;;;;17.23;10.63;;;4.00;99.90;;;;;;5089559;28;20488;-52
2020/12/13 00:46:28;;;;;;;14.90;10.10;;;4.00;99.90;;;;;;5091306;28;21005;-52
2020/12/13 00:48:54;;;;;;;16.40;10.33;;;3.90;99.90;;;;;;5089097;28;20954;-51
2020/12/13 00:51:25;;;;;;;15.00;9.63;;;4.00;99.90;;;;;;5091282;28;20515;-52
2020/12/13 00:53:52;;;;;;;17.87;10.57;;;4.10;99.90;;;;;;5088657;28;20478;-51
2020/12/13 00:56:18;;;;;;;18.23;10.87;;;4.20;99.90;;;;;;5091084;28;20438;-52
2020/12/13 00:58:45;;;;;;;14.17;8.73;;;4.10;99.90;;;;;;5090118;28;20491;-52
2020/12/13 01:01:11;;;;;;;15.77;10.03;;;4.20;99.90;;;;;;5086827;28;20463;-52
2020/12/13 01:03:38;;;;;;;15.23;9.50;;;4.20;99.90;;;;;;5087538;28;20530;-51
2020/12/13 01:06:05;;;;;;;17.70;10.10;;;4.30;99.90;;;;;;5090459;28;20465;-52
2020/12/13 01:08:31;;;;;;;16.20;11.00;;;4.20;99.90;;;;;;5089839;28;20574;-51
2020/12/13 01:10:58;;;;;;;15.63;10.70;;;4.10;99.90;;;;;;5090964;28;20449;-51
2020/12/13 01:13:25;;;;;;;16.50;10.53;;;4.10;99.90;;;;;;5089161;28;20457;-51
2020/12/13 01:15:52;;;;;;;17.53;10.73;;;4.20;99.90;;;;;;5089724;28;20457;-51
2020/12/13 01:18:19;;;;;;;17.30;10.67;;;4.10;99.90;;;;;;5090592;28;20454;-52
2020/12/13 01:20:46;;;;;;;17.10;11.00;;;4.10;99.90;;;;;;5090296;28;20825;-51
2020/12/13 01:23:13;;;;;;;19.03;10.90;;;4.10;99.90;;;;;;5089984;28;20535;-52
2020/12/13 01:25:39;;;;;;;15.53;10.00;;;4.00;99.90;;;;;;5089754;28;20469;-52
2020/12/13 01:28:06;;;;;;;16.20;10.40;;;4.10;99.90;;;;;;5090815;28;20454;-52
2020/12/13 01:30:32;;;;;;;16.73;10.10;;;4.00;99.90;;;;;;5088127;28;20466;-52
2020/12/13 01:32:59;;;;;;;17.10;10.30;;;4.10;99.90;;;;;;5089081;28;20468;-51
2020/12/13 01:35:25;;;;;;;16.03;9.67;;;4.20;99.90;;;;;;5089746;28;20485;-52
2020/12/13 01:37:53;;;;;;;14.50;9.30;;;4.30;99.90;;;;;;5090677;28;20499;-52
2020/12/13 01:40:20;;;;;;;16.67;9.53;;;4.20;99.90;;;;;;5090025;28;20543;-52
2020/12/13 01:42:47;;;;;;;15.50;9.90;;;4.20;99.90;;;;;;5089926;28;20507;-52
2020/12/13 01:45:18;;;;;;;13.07;9.00;;;4.20;99.90;;;;;;5088805;28;20489;-52
2020/12/13 01:47:45;;;;;;;19.07;9.60;;;4.30;99.90;;;;;;5089419;28;20539;-52
2020/12/13 01:50:23;;;;;;;14.40;9.50;;;4.20;99.90;;;;;;5090309;28;20524;-52
2020/12/13 01:52:49;;;;;;;12.07;7.47;;;4.20;99.90;;;;;;5087576;28;20462;-52
2020/12/13 01:55:19;;;;;;;13.07;8.80;;;4.40;99.90;;;;;;5069623;28;20496;-51
2020/12/13 01:57:47;;;;;;;12.50;7.27;;;4.50;99.90;;;;;;5078008;28;20446;-52
2020/12/13 02:00:16;;;;;;;13.90;7.80;;;4.40;99.90;;;;;;5088900;28;21046;-51
2020/12/13 02:02:45;;;;;;;12.37;7.90;;;4.40;99.90;;;;;;5087868;28;20594;-52
2020/12/13 02:05:13;;;;;;;12.83;8.53;;;4.20;99.90;;;;;;5089575;28;20493;-51
2020/12/13 02:07:42;;;;;;;14.80;8.30;;;4.20;99.90;;;;;;5089559;28;20462;-52
2020/12/13 02:10:10;;;;;;;14.07;8.73;;;4.30;99.90;;;;;;5090261;28;21035;-51
2020/12/13 02:12:38;;;;;;;13.40;8.77;;;4.20;99.90;;;;;;5088635;28;20462;-52
2020/12/13 02:15:07;;;;;;;14.47;8.80;;;4.30;99.90;;;;;;5088302;28;20489;-52
2020/12/13 02:17:36;;;;;;;13.93;8.50;;;4.20;99.90;;;;;;5089678;28;20469;-51
2020/12/13 02:20:07;;;;;;;15.27;8.60;;;4.10;99.90;;;;;;5089194;28;21004;-52
2020/12/13 02:22:39;;;;;;;16.07;9.53;;;4.00;99.90;;;;;;5085323;28;21055;-51
2020/12/13 02:25:10;;;;;;;18.90;9.20;;;4.00;99.90;;;;;;5069980;28;20463;-52
2020/12/13 02:27:36;;;;;;;14.90;9.50;;;4.00;99.90;;;;;;5078643;28;21206;-52
2020/12/13 02:30:04;;;;;;;12.73;8.97;;;4.10;99.90;;;;;;5089955;28;20940;-52
2020/12/13 02:32:31;;;;;;;14.10;9.13;;;4.10;99.90;;;;;;5086986;28;20458;-51
2020/12/13 02:34:58;;;;;;;15.43;9.60;;;4.10;99.90;;;;;;5086658;28;20519;-52
2020/12/13 02:37:24;;;;;;;12.53;8.37;;;4.00;99.90;;;;;;5093147;28;20518;-52
2020/12/13 02:39:51;;;;;;;14.90;9.27;;;4.10;99.90;;;;;;5091418;28;20462;-51
2020/12/13 02:42:18;;;;;;;14.10;9.57;;;4.20;99.90;;;;;;5073294;28;20543;-52
2020/12/13 02:44:44;;;;;;;13.30;9.23;;;4.10;99.90;;;;;;5091677;28;20474;-52
2020/12/13 02:47:11;;;;;;;14.20;8.83;;;4.00;99.90;;;;;;5091719;28;20472;-52
2020/12/13 02:49:40;;;;;;;14.67;9.03;;;4.10;99.90;;;;;;5093495;28;20450;-52
2020/12/13 02:52:07;;;;;;;15.17;9.43;;;4.20;99.90;;;;;;5091470;28;20470;-51
2020/12/13 02:54:33;;;;;;;16.67;9.23;;;4.20;99.90;;;;;;5090183;28;20480;-51
2020/12/13 02:57:01;;;;;;;14.90;10.13;;;4.20;99.90;;;;;;5093399;28;20503;-51
2020/12/13 02:59:27;;;;;;;16.33;11.03;;;4.10;99.90;;;;;;5092365;28;20462;-52
2020/12/13 03:01:54;;;;;;;16.60;10.30;;;4.10;99.90;;;;;;5090687;28;20473;-52
2020/12/13 03:04:20;;;;;;;17.80;9.53;;;4.20;99.90;;;;;;5090446;28;20543;-52
2020/12/13 03:06:47;;;;;;;15.10;10.27;;;4.20;99.90;;;;;;5091724;28;20462;-52
2020/12/13 03:09:13;;;;;;;15.23;9.93;;;4.10;99.90;;;;;;5092590;28;20450;-52
2020/12/13 03:11:40;;;;;;;16.67;10.57;;;4.20;99.90;;;;;;5092425;28;20503;-52
2020/12/13 03:14:07;;;;;;;17.57;9.50;;;4.10;99.90;;;;;;5091668;28;20478;-52
2020/12/13 03:16:34;;;;;;;17.60;10.30;;;4.20;99.90;;;;;;5092598;28;20499;-52
2020/12/13 03:19:03;;;;;;;14.50;9.73;;;4.10;99.90;;;;;;5090124;28;20446;-52
2020/12/13 03:21:30;;;;;;;15.97;9.60;;;4.20;99.90;;;;;;5080288;28;20442;-52
2020/12/13 03:24:00;;;;;;;14.63;9.73;;;4.40;99.90;;;;;;5089888;28;20485;-52
2020/12/13 03:26:26;;;;;;;17.43;10.07;;;4.50;99.90;;;;;;5092780;28;20446;-51
2020/12/13 03:28:52;;;;;;;13.70;9.30;;;4.50;99.90;;;;;;5092845;28;20491;-51
2020/12/13 03:31:20;;;;;;;14.40;9.10;;;4.50;99.90;;;;;;5092425;28;20457;-51
2020/12/13 03:33:47;;;;;;;12.97;8.60;;;4.40;99.90;;;;;;5092021;28;20462;-51
2020/12/13 03:36:14;;;;;;;11.80;7.73;;;4.20;99.90;;;;;;5092345;28;20450;-52
2020/12/13 03:38:40;;;;;;;14.50;9.70;;;4.20;99.90;;;;;;5092256;28;21074;-51
2020/12/13 03:41:07;;;;;;;14.27;8.57;;;4.20;99.90;;;;;;5092503;28;20503;-51
2020/12/13 03:43:33;;;;;;;14.30;9.40;;;4.10;99.90;;;;;;5091825;28;20473;-52
2020/12/13 03:46:00;;;;;;;15.10;8.83;;;4.10;99.90;;;;;;5091517;28;20495;-51
2020/12/13 03:48:27;;;;;;;15.63;9.23;;;4.10;99.90;;;;;;5092018;28;20947;-51
2020/12/13 03:50:53;;;;;;;13.07;8.70;;;4.10;99.90;;;;;;5091232;28;20941;-52
2020/12/13 03:53:20;;;;;;;14.00;9.50;;;4.30;99.90;;;;;;5091560;28;20495;-52
2020/12/13 03:55:46;;;;;;;13.57;8.97;;;4.30;99.90;;;;;;5087408;28;20586;-52
2020/12/13 03:58:13;;;;;;;13.83;8.40;;;4.20;99.90;;;;;;5092059;28;20499;-51
2020/12/13 04:00:40;;;;;;;13.00;8.57;;;4.20;99.90;;;;;;5090354;28;20561;-52
2020/12/13 04:03:07;;;;;;;13.03;9.10;;;4.10;99.90;;;;;;5091992;28;20477;-52
2020/12/13 04:05:34;;;;;;;15.37;8.70;;;4.10;99.90;;;;;;5091933;28;20564;-51
2020/12/13 04:08:01;;;;;;;17.40;9.20;;;4.10;99.90;;;;;;5091454;28;20967;-51
2020/12/13 04:10:28;;;;;;;14.60;9.13;;;4.10;99.90;;;;;;5091479;28;20856;-52
2020/12/13 04:12:54;;;;;;;14.40;8.60;;;4.20;99.90;;;;;;5092103;28;20554;-52
2020/12/13 04:15:21;;;;;;;15.90;9.00;;;4.20;99.90;;;;;;5091901;28;20885;-52
2020/12/13 04:17:48;;;;;;;12.73;7.93;;;4.20;99.90;;;;;;5091730;28;20669;-51
2020/12/13 04:20:14;;;;;;;14.10;9.00;;;4.40;99.90;;;;;;5091475;28;20453;-51
2020/12/13 04:22:42;;;;;;;14.23;9.83;;;4.30;99.90;;;;;;5091924;28;20477;-52
2020/12/13 04:25:08;;;;;;;15.23;9.50;;;4.20;99.90;;;;;;5090931;28;20530;-52
2020/12/13 04:27:35;;;;;;;15.03;9.10;;;4.20;99.90;;;;;;5091913;28;20909;-52
2020/12/13 04:30:01;;;;;;;17.03;9.90;;;4.10;99.90;;;;;;5091199;28;20458;-52
2020/12/13 04:32:28;;;;;;;14.50;9.03;;;4.20;99.90;;;;;;5091453;28;20992;-52
2020/12/13 04:34:54;;;;;;;12.93;9.10;;;4.10;99.90;;;;;;5090957;28;20908;-51
2020/12/13 04:37:23;;;;;;;17.87;10.13;;;4.10;99.90;;;;;;5091681;28;20495;-51
2020/12/13 04:39:52;;;;;;;16.10;10.20;;;4.10;99.90;;;;;;5090960;28;20528;-52
2020/12/13 04:42:18;;;;;;;15.40;10.17;;;3.90;99.90;;;;;;5091250;28;20957;-52
2020/12/13 04:44:46;;;;;;;19.10;10.97;;;4.00;99.90;;;;;;5090066;28;20474;-52
2020/12/13 04:47:17;;;;;;;15.40;9.80;;;4.00;99.90;;;;;;5088589;28;20446;-52
2020/12/13 04:49:47;;;;;;;21.10;11.13;;;4.00;99.90;;;;;;5083312;28;20439;-52
2020/12/13 04:52:15;;;;;;;21.23;11.80;;;4.00;99.90;;;;;;5090014;28;20897;-52
2020/12/13 04:54:48;;;;;;;19.43;11.83;;;4.10;99.90;;;;;;5072801;28;20462;-51
2020/12/13 04:57:16;;;;;;;18.30;10.77;;;4.10;99.90;;;;;;5070602;28;20533;-51
2020/12/13 04:59:44;;;;;;;17.53;10.23;;;4.10;99.90;;;;;;5082498;28;20467;-52
2020/12/13 05:02:12;;;;;;;20.30;10.20;;;4.10;99.90;;;;;;5086891;28;20443;-52
2020/12/13 05:04:39;;;;;;;14.90;9.70;;;4.10;99.90;;;;;;5090086;28;20560;-51
2020/12/13 05:07:06;;;;;;;19.80;11.30;;;4.20;99.90;;;;;;5071070;28;20451;-51
2020/12/13 05:09:33;;;;;;;17.30;10.60;;;4.00;99.90;;;;;;5079175;28;20479;-52
2020/12/13 05:12:00;;;;;;;16.43;10.60;;;3.80;99.90;;;;;;5089592;28;20504;-52
2020/12/13 05:14:27;;;;;;;16.40;10.37;;;3.70;99.90;;;;;;5074499;28;20462;-52
2020/12/13 05:17:09;;;;;;;18.03;10.87;;;3.90;99.90;;;;;;5070875;28;20933;-52
2020/12/13 05:19:38;;;;;;;21.17;11.40;;;3.90;99.90;;;;;;5079544;28;20456;-52
2020/12/13 05:22:05;;;;;;;21.47;11.40;;;3.90;99.90;;;;;;5089625;28;20442;-52
2020/12/13 05:24:33;;;;;;;16.07;10.50;;;4.00;99.90;;;;;;5089383;28;20527;-52
2020/12/13 05:27:01;;;;;;;20.80;11.10;;;3.90;99.90;;;;;;5089363;28;20497;-52
2020/12/13 05:29:31;;;;;;;20.10;10.70;;;4.10;99.90;;;;;;5075837;28;21302;-51
2020/12/13 05:32:12;;;;;;;14.50;9.93;;;4.20;99.90;;;;;;5078592;28;20455;-52
2020/12/13 05:34:40;;;;;;;17.43;10.50;;;4.20;99.90;;;;;;5070986;28;20465;-52
2020/12/13 05:37:13;;;;;;;16.70;11.07;;;4.20;99.90;;;;;;5071522;28;20510;-52
2020/12/13 05:39:42;;;;;;;21.40;12.70;;;4.30;99.90;;;;;;5081316;28;20462;-51
2020/12/13 05:42:11;;;;;;;18.77;11.63;;;4.20;99.90;;;;;;5076343;28;21024;-52
2020/12/13 05:47:33;;;;;;;16.83;10.80;;;4.30;99.90;;;;;;5073081;28;20508;-52
2020/12/13 05:52:45;;;;;;;22.43;11.40;;;4.10;99.90;;;;;;5068009;28;20431;-52
2020/12/13 05:55:12;;;;;;;19.63;12.00;;;4.10;99.90;;;;;;5070293;28;20463;-52
2020/12/13 05:57:41;;;;;;;23.53;12.27;;;4.10;99.90;;;;;;5072402;28;20434;-51
2020/12/13 06:00:09;;;;;;;23.50;12.83;;;4.00;99.90;;;;;;5079780;28;20813;-52
2020/12/13 06:02:37;;;;;;;22.70;12.87;;;4.00;99.90;;;;;;5073039;28;20490;-52
2020/12/13 06:05:06;;;;;;;18.50;11.90;;;4.30;99.90;;;;;;5075213;28;20841;-52
2020/12/13 06:07:35;;;;;;;20.77;12.53;;;4.40;99.90;;;;;;5089105;28;21030;-51
2020/12/13 06:10:05;;;;;;;22.60;13.33;;;4.40;99.90;;;;;;5091164;28;20441;-52
2020/12/13 06:12:32;;;;;;;21.03;12.47;;;4.10;99.90;;;;;;5092281;28;20881;-50
2020/12/13 06:15:00;;;;;;;18.63;12.03;;;4.30;99.90;;;;;;5077696;28;20470;-51
2020/12/13 06:17:28;;;;;;;24.73;12.83;;;4.20;99.90;;;;;;5077000;28;20855;-51
2020/12/13 06:19:56;;;;;;;22.90;13.63;;;4.40;99.90;;;;;;5091747;28;20441;-52
2020/12/13 06:22:24;;;;;;;24.30;12.93;;;4.30;99.90;;;;;;5084077;28;20481;-51
2020/12/13 06:24:51;;;;;;;24.53;11.90;;;4.40;99.90;;;;;;5074079;28;20470;-52
2020/12/13 06:27:21;;;;;;;18.43;10.97;;;4.30;99.90;;;;;;5080264;28;20458;-52
2020/12/13 06:29:48;;;;;;;17.33;11.27;;;4.20;99.90;;;;;;5075796;28;20443;-51
2020/12/13 06:32:14;;;;;;;18.93;11.00;;;4.20;99.90;;;;;;5079302;28;20458;-52
2020/12/13 06:34:45;;;;;;;21.10;12.00;;;4.30;99.90;;;;;;5081961;28;20473;-52
2020/12/13 06:37:14;;;;;;;20.17;11.33;;;4.40;99.90;;;;;;5077054;28;20442;-52
2020/12/13 06:39:42;;;;;;;21.53;12.43;;;4.40;99.90;;;;;;5084947;28;20450;-51
2020/12/13 06:42:09;;;;;;;17.57;10.70;;;4.20;99.90;;;;;;5075459;28;21261;-51
2020/12/13 06:44:35;;;;;;;21.20;12.30;;;4.30;99.90;;;;;;5083204;28;20505;-51
2020/12/13 06:47:21;;;;;;;17.90;11.10;;;4.40;99.90;;;;;;5072670;28;20951;-52
2020/12/13 06:49:50;;;;;;;19.07;11.50;;;4.30;99.90;;;;;;5076636;28;20507;-51
2020/12/13 06:52:30;;;;;;;20.20;11.77;;;4.40;99.90;;;;;;5076535;28;20538;-52
2020/12/13 06:55:03;;;;;;;22.07;12.93;;;4.30;99.90;;;;;;5077889;28;20474;-52
2020/12/13 06:57:36;;;;;;;24.33;13.77;;;4.40;99.90;;;;;;5077482;28;20443;-52
2020/12/13 07:00:06;;;;;;;21.20;13.20;;;4.40;99.90;;;;;;5072298;28;20818;-52
2020/12/13 07:02:48;;;;;;;24.13;13.23;;;4.30;99.90;;;;;;5074791;28;20447;-51
2020/12/13 07:05:16;;;;;;;20.73;12.20;;;4.20;99.90;;;;;;5075221;28;20513;-52
2020/12/13 07:07:46;;;;;;;19.20;12.87;;;4.00;99.90;;;;;;5072150;28;20438;-52
2020/12/13 07:10:13;;;;;;;20.77;11.90;;;4.10;99.90;;;;;;5072073;28;20932;-51
2020/12/13 07:12:48;;;;;;;22.00;13.03;;;4.20;99.90;;;;;;5086744;28;20442;-52
2020/12/13 07:15:21;;;;;;;21.67;12.00;;;4.30;99.90;;;;;;5076365;28;20485;-52
2020/12/13 07:17:50;;;;;;;22.57;11.90;;;4.20;99.90;;;;;;5079286;28;20444;-51
2020/12/13 07:20:19;;;;;;;16.87;10.90;;;4.40;99.90;;;;;;5084310;28;20447;-52
2020/12/13 07:22:46;;;;;;;19.30;11.17;;;4.30;99.90;;;;;;5081220;28;20490;-51
2020/12/13 07:25:13;;;;;;;21.27;11.70;;;4.30;99.90;;;;;;5071688;28;21034;-52
2020/12/13 07:27:40;;;;;;;20.60;12.20;;;4.30;99.90;;;;;;5073482;28;20450;-51
2020/12/13 07:30:12;;;;;;;21.80;12.40;;;4.40;99.90;;;;;;5079933;28;20446;-52
2020/12/13 07:32:39;;;;;;;18.37;11.30;;;4.30;99.90;;;;;;5090697;28;20438;-52
2020/12/13 07:35:12;;;;;;;15.43;10.13;;;4.30;99.90;;;;;;5074935;28;20869;-52
2020/12/13 07:37:42;;;;;;;17.37;9.40;;;4.50;99.90;;;;;;5072280;28;20956;-51
2020/12/13 07:40:12;;;;;;;16.17;9.60;;;4.50;99.90;;;;;;5075425;28;20453;-51
2020/12/13 07:42:39;;;;;;;14.97;8.80;;;4.60;99.90;;;;;;5075673;28;20446;-52
2020/12/13 07:45:06;;;;;;;13.13;8.10;;;4.60;99.90;;;;;;5082078;28;20982;-51
2020/12/13 07:47:33;;;;;;;16.87;9.50;;;4.50;99.90;;;;;;5076932;28;20447;-51
2020/12/13 07:50:05;;;;;;;14.70;9.00;;;4.50;99.90;;;;;;5083516;28;21037;-51
2020/12/13 07:52:31;;;;;;;13.57;8.63;;;4.60;99.90;;;;;;5071384;28;20984;-52
2020/12/13 07:55:08;;;;;;;16.00;9.93;;;4.50;99.90;;;;;;5075327;28;20465;-53
2020/12/13 07:57:36;;;;;;;13.80;8.53;;;4.60;99.90;;;;;;5075380;28;20443;-51
2020/12/13 08:00:09;;;;;;;13.80;8.90;;;4.60;99.90;;;;;;5071207;28;20454;-52
2020/12/13 08:02:36;;;;;;;16.40;9.80;;;4.40;99.90;;;;;;5080401;28;20449;-51
2020/12/13 08:05:02;;;;;;;15.87;10.37;;;4.60;99.90;;;;;;5084833;28;20489;-52
2020/12/13 08:07:30;;;;;;;19.00;9.70;;;4.50;99.90;;;;;;5087563;28;20446;-52
2020/12/13 08:09:58;;;;;;;18.70;10.47;;;4.40;99.90;;;;;;5087304;28;20526;-52
2020/12/13 08:12:33;;;;;;;16.70;10.17;;;4.30;99.90;;;;;;5076951;28;20434;-52
2020/12/13 08:15:00;;;;;;;20.90;11.20;;;4.20;99.90;;;;;;5077569;28;20566;-52
2020/12/13 08:17:26;;;;;;;17.80;11.47;;;4.30;99.90;;;;;;5070894;28;20436;-52
2020/12/13 08:19:57;;;;;;;19.50;11.37;;;4.40;99.90;;;;;;5078101;28;20443;-51
2020/12/13 08:22:26;;;;;;;19.27;11.47;;;4.20;99.90;;;;;;5084849;28;20438;-52
2020/12/13 08:24:56;;;;;;;17.07;10.70;;;4.40;99.90;;;;;;5074706;28;20506;-51
2020/12/13 08:27:23;;;;;;;19.77;11.37;;;4.40;99.90;;;;;;5072775;28;20439;-52
2020/12/13 08:29:52;;;;;;;21.03;12.23;;;4.30;99.90;;;;;;5074778;28;20454;-51
2020/12/13 08:32:22;;;;;;;24.73;12.97;;;4.30;99.90;;;;;;5078883;28;20993;-52
2020/12/13 08:34:49;;;;;;;24.47;14.50;;;4.20;99.90;;;;;;5085290;28;20553;-51
2020/12/13 08:37:23;;;;;;;18.40;11.40;;;4.10;99.90;;;;;;5071916;28;20527;-51
2020/12/13 08:39:50;;;;;;;29.07;16.07;;;4.00;99.90;;;;;;5073208;28;20438;-51
2020/12/13 08:42:23;;;;;;;34.40;19.50;;;4.20;99.90;;;;;;5072467;28;20443;-51
2020/12/13 08:44:51;;;;;;;27.63;15.93;;;4.10;99.90;;;;;;5073259;28;20501;-51
2020/12/13 08:47:19;;;;;;;21.37;13.17;;;4.20;99.90;;;;;;5071989;28;20450;-52
2020/12/13 08:49:49;;;;;;;18.57;11.50;;;4.10;99.90;;;;;;5070485;28;20442;-51
2020/12/13 08:52:20;;;;;;;22.60;13.47;;;4.10;99.90;;;;;;5076950;28;20520;-51
2020/12/13 08:54:49;;;;;;;18.10;11.57;;;4.10;99.90;;;;;;5078796;28;20446;-52
2020/12/13 08:57:26;;;;;;;22.00;11.27;;;4.10;99.90;;;;;;5070357;28;20466;-51
2020/12/13 09:00:02;;;;;;;17.90;11.30;;;4.20;99.90;;;;;;5072569;28;20525;-52
2020/12/13 09:02:28;;;;;;;19.30;11.30;;;4.20;99.90;;;;;;5076335;28;20441;-51
2020/12/13 09:04:56;;;;;;;18.70;10.90;;;4.20;99.90;;;;;;5075524;28;21097;-52
2020/12/13 09:07:23;;;;;;;19.30;11.37;;;4.10;99.90;;;;;;5070047;28;20440;-52
2020/12/13 09:09:50;;;;;;;21.13;11.73;;;4.10;99.90;;;;;;5088539;28;20456;-52
2020/12/13 09:12:28;;;;;;;18.27;11.73;;;4.10;99.90;;;;;;5084255;28;20470;-51
2020/12/13 09:14:55;;;;;;;20.40;12.20;;;4.20;99.90;;;;;;5078958;28;20497;-52
2020/12/13 09:17:25;;;;;;;21.50;11.87;;;4.20;99.90;;;;;;5078983;28;20455;-51
2020/12/13 09:19:53;;;;;;;16.80;10.67;;;4.30;99.90;;;;;;5075363;28;20462;-52
2020/12/13 09:22:21;;;;;;;19.40;11.20;;;4.40;99.90;;;;;;5074334;28;20442;-51
2020/12/13 09:24:48;;;;;;;15.50;10.40;;;4.60;99.90;;;;;;5073366;28;20477;-52
2020/12/13 09:27:18;;;;;;;16.30;9.70;;;4.50;99.90;;;;;;5088768;28;20438;-52
2020/12/13 09:29:46;;;;;;;19.17;10.80;;;4.40;99.90;;;;;;5088673;28;20431;-51
2020/12/13 09:32:14;;;;;;;16.30;10.10;;;4.20;99.90;;;;;;5078495;28;20447;-51
2020/12/13 09:34:41;;;;;;;18.20;10.50;;;4.20;99.90;;;;;;5069573;28;20462;-52
2020/12/13 09:37:09;;;;;;;15.80;9.77;;;4.20;99.90;;;;;;5071714;28;20459;-52
2020/12/13 09:39:38;;;;;;;16.90;10.30;;;4.40;99.90;;;;;;5075358;28;20446;-52
2020/12/13 09:42:09;;;;;;;16.53;9.80;;;4.50;99.90;;;;;;5088512;28;20446;-52
2020/12/13 09:44:36;;;;;;;15.10;9.60;;;4.60;99.90;;;;;;5080882;28;20937;-52
2020/12/13 09:47:03;;;;;;;14.60;9.33;;;4.60;99.90;;;;;;5073706;28;20443;-52
2020/12/13 09:49:31;;;;;;;18.90;10.63;;;4.50;99.90;;;;;;5073519;28;20855;-52
2020/12/13 09:51:59;;;;;;;22.40;11.80;;;4.40;99.90;;;;;;5075627;28;20439;-50
2020/12/13 09:54:26;;;;;;;23.53;12.63;;;4.30;99.90;;;;;;5074675;28;21041;-52
2020/12/13 09:56:53;;;;;;;25.00;13.80;;;4.30;99.90;;;;;;5077201;28;20443;-51
2020/12/13 09:59:20;;;;;;;21.50;12.40;;;4.20;99.90;;;;;;5076741;28;20939;-52
2020/12/13 10:01:46;;;;;;;23.80;12.20;;;4.20;99.90;;;;;;5073303;28;20446;-52
2020/12/13 10:04:14;;;;;;;22.77;12.50;;;4.30;99.90;;;;;;5075375;28;20991;-52
2020/12/13 10:06:49;;;;;;;22.07;12.80;;;4.40;99.90;;;;;;5078200;28;20826;-52
2020/12/13 10:09:17;;;;;;;20.43;12.23;;;4.40;99.90;;;;;;5079546;28;20955;-52
2020/12/13 10:11:44;;;;;;;18.30;11.20;;;4.60;99.90;;;;;;5073316;28;20451;-52
2020/12/13 10:14:12;;;;;;;16.33;11.30;;;4.60;99.90;;;;;;5076108;28;20459;-51
2020/12/13 10:16:39;;;;;;;15.23;10.10;;;4.60;99.90;;;;;;5080731;28;20461;-52
2020/12/13 10:19:06;;;;;;;14.33;10.07;;;4.60;99.90;;;;;;5074089;28;20454;-52
2020/12/13 10:21:33;;;;;;;20.80;12.33;;;4.80;99.90;;;;;;5074468;28;20823;-52
2020/12/13 10:24:04;;;;;;;15.57;11.10;;;4.80;99.90;;;;;;5073007;28;20593;-52
2020/12/13 10:26:35;;;;;;;15.47;10.57;;;4.90;99.90;;;;;;5079040;28;20973;-52
2020/12/13 10:29:03;;;;;;;16.43;10.70;;;5.00;99.90;;;;;;5078156;28;20447;-51
2020/12/13 10:31:30;;;;;;;16.53;10.70;;;4.90;99.90;;;;;;5075240;28;20455;-52
2020/12/13 10:33:58;;;;;;;18.33;10.20;;;4.70;99.90;;;;;;5088186;28;20451;-51
2020/12/13 10:36:25;;;;;;;17.97;11.43;;;4.80;99.90;;;;;;5091667;28;20449;-52
2020/12/13 10:38:52;;;;;;;15.07;10.07;;;4.80;99.90;;;;;;5085365;28;20443;-52
2020/12/13 10:41:20;;;;;;;15.03;10.00;;;4.90;99.90;;;;;;5081446;28;20537;-52
2020/12/13 10:43:48;;;;;;;14.77;9.67;;;5.00;99.90;;;;;;5072657;28;20493;-52
2020/12/13 10:46:15;;;;;;;11.70;8.00;;;5.10;99.90;;;;;;5084415;28;20461;-53
2020/12/13 10:48:41;;;;;;;12.13;8.23;;;5.30;99.90;;;;;;5072650;28;20474;-52
2020/12/13 10:51:08;;;;;;;12.40;7.70;;;5.30;99.90;;;;;;5086501;28;20494;-50
2020/12/13 10:53:35;;;;;;;12.30;7.70;;;5.30;99.90;;;;;;5073855;28;20439;-52
2020/12/13 10:56:04;;;;;;;12.83;8.40;;;5.00;99.90;;;;;;5084038;28;20956;-52
2020/12/13 10:58:31;;;;;;;13.00;8.50;;;4.80;99.90;;;;;;5091444;28;20965;-52
2020/12/13 11:01:01;;;;;;;15.30;9.50;;;4.70;99.90;;;;;;5074878;28;20465;-52
2020/12/13 11:03:27;;;;;;;12.47;7.77;;;4.70;99.90;;;;;;5083302;28;20482;-52
2020/12/13 11:05:54;;;;;;;14.17;9.10;;;4.80;99.90;;;;;;5082850;28;20531;-51
2020/12/13 11:08:22;;;;;;;13.27;8.30;;;4.90;99.90;;;;;;5080819;28;20538;-52
2020/12/13 11:10:49;;;;;;;12.13;7.93;;;5.00;99.90;;;;;;5087435;28;20450;-52
2020/12/13 11:13:16;;;;;;;9.77;6.70;;;5.10;99.90;;;;;;5078836;28;20495;-51
2020/12/13 11:15:43;;;;;;;13.07;7.40;;;5.30;99.90;;;;;;5090966;28;20435;-53
2020/12/13 11:18:11;;;;;;;8.50;6.67;;;5.20;99.90;;;;;;5081451;28;20443;-51
2020/12/13 11:20:37;;;;;;;12.00;7.17;;;5.20;99.90;;;;;;5074617;28;20525;-52
2020/12/13 11:23:04;;;;;;;11.20;7.47;;;5.10;99.90;;;;;;5078184;28;20446;-51
2020/12/13 11:25:31;;;;;;;11.50;7.83;;;5.00;99.90;;;;;;5080729;28;20462;-52
2020/12/13 11:27:59;;;;;;;11.50;7.90;;;5.00;99.90;;;;;;5079407;28;20446;-52
2020/12/13 11:30:26;;;;;;;17.00;10.33;;;5.00;99.90;;;;;;5078568;28;20530;-51
2020/12/13 11:32:53;;;;;;;16.47;9.80;;;5.00;99.90;;;;;;5080397;28;20465;-53
2020/12/13 11:35:20;;;;;;;13.57;8.70;;;5.00;99.90;;;;;;5081154;28;20513;-52
2020/12/13 11:37:47;;;;;;;15.47;9.50;;;5.00;99.90;;;;;;5082353;28;20458;-52
2020/12/13 11:40:14;;;;;;;13.93;9.20;;;5.00;99.90;;;;;;5082384;28;20458;-52
2020/12/13 11:42:40;;;;;;;14.80;8.83;;;5.00;99.90;;;;;;5082132;28;20479;-52
2020/12/13 11:45:08;;;;;;;16.23;8.90;;;5.10;99.90;;;;;;5076957;28;21018;-52
2020/12/13 11:47:34;;;;;;;16.60;10.07;;;5.20;99.90;;;;;;5091268;28;20955;-52
2020/12/13 11:50:02;;;;;;;15.43;9.47;;;5.30;99.90;;;;;;5102325;22;20497;-48
2020/12/13 11:52:29;;;;;;;14.30;9.13;;;5.50;99.90;;;;;;5087591;28;21045;-48
2020/12/13 11:54:57;;;;;;;12.85;9.45;;;5.70;99.90;;;;;;5068442;28;20448;-48
2020/12/13 11:57:23;;;;;;;11.80;8.07;;;5.70;99.90;;;;;;5071943;28;20212;-49
2020/12/13 11:59:50;;;;;;;11.93;7.33;;;5.80;99.90;;;;;;5067459;28;20993;-49
2020/12/13 12:02:16;;;;;;;10.27;7.20;;;6.10;99.90;;;;;;5062634;28;20467;-48
2020/12/13 12:04:43;;;;;;;8.67;6.13;;;6.30;99.90;;;;;;5063376;28;20512;-49
2020/12/13 12:07:10;;;;;;;9.63;6.33;;;6.30;99.90;;;;;;5058434;28;20459;-48
2020/12/13 12:09:37;;;;;;;7.27;5.77;;;6.30;99.90;;;;;;5059557;28;20554;-48
2020/12/13 12:12:04;;;;;;;8.63;4.67;;;6.50;99.90;;;;;;5062357;28;20532;-49
2020/12/13 12:14:30;;;;;;;10.00;5.43;;;6.60;99.90;;;;;;5060621;28;20460;-49
2020/12/13 12:16:57;;;;;;;7.27;5.17;;;6.70;99.90;;;;;;5062364;28;20482;-49
2020/12/13 12:19:23;;;;;;;6.20;4.77;;;6.80;99.90;;;;;;5060101;28;20493;-48
2020/12/13 12:21:51;;;;;;;5.30;4.00;;;7.10;99.90;;;;;;5060879;28;20466;-48
2020/12/13 12:24:20;;;;;;;5.60;4.73;;;7.30;99.90;;;;;;5060683;28;20494;-48
2020/12/13 12:26:50;;;;;;;4.80;4.07;;;7.50;99.90;;;;;;5060787;28;20458;-49
2020/12/13 12:29:20;;;;;;;6.00;4.43;;;7.70;99.90;;;;;;5060357;28;20478;-48
2020/12/13 12:31:47;;;;;;;5.97;3.67;;;7.80;99.90;;;;;;5060410;28;20468;-48
2020/12/13 12:34:14;;;;;;;3.60;3.30;;;8.00;99.90;;;;;;5061334;28;20540;-48
2020/12/13 12:36:41;;;;;;;3.83;3.43;;;8.00;99.90;;;;;;5059137;28;20504;-48
2020/12/13 12:39:07;;;;;;;3.87;3.30;;;8.10;99.90;;;;;;5060730;28;20479;-48
2020/12/13 12:41:34;;;;;;;3.23;2.93;;;8.20;99.90;;;;;;5060068;28;20458;-48
2020/12/13 12:44:05;;;;;;;2.90;2.60;;;8.10;99.90;;;;;;5059734;28;20493;-48
2020/12/13 12:46:31;;;;;;;4.20;3.50;;;8.10;99.90;;;;;;5059014;28;20473;-48
2020/12/13 12:49:00;;;;;;;3.30;3.00;;;8.10;99.90;;;;;;5059760;28;20490;-48
2020/12/13 12:51:28;;;;;;;3.60;2.70;;;8.30;99.90;;;;;;5056494;28;20543;-48
2020/12/13 12:53:55;;;;;;;3.90;3.40;;;8.20;99.90;;;;;;5058943;28;20458;-48